sensor_id;sensor_type;location;lat;lon;timestamp;pressure;altitude;pressure_sealevel;temperature;humidity
21129;BME280;10722;51.910;8.352;2024-03-22T00:00:25;101401.75;;;8.98;100.00
21129;BME280;10722;51.910;8.352;2024-03-22T00:03:09;101411.06;;;8.95;100.00
21129;BME280;10722;51.910;8.352;2024-03-22T00:05:53;101413.72;;;8.96;100.00
21129;BME280;10722;51.910;8.352;2024-03-22T00:08:37;101404.25;;;8.97;100.00
21129;BME280;10722;51.910;8.352;2024-03-22T00:11:21;101400.34;;;9.08;100.00
21129;BME280;10722;51.910;8.352;2024-03-22T00:14:05;101398.84;;;9.15;100.00
21129;BME280;10722;51.910;8.352;2024-03-22T00:16:49;101391.94;;;9.14;100.00
21129;BME280;10722;51.910;8.352;2024-03-22T00:19:34;101394.31;;;9.08;100.00
21129;BME280;10722;51.910;8.352;2024-03-22T00:22:19;101390.78;;;9.06;100.00
21129;BME280;10722;51.910;8.352;2024-03-22T00:25:03;101393.28;;;9.03;100.00
21129;BME280;10722;51.910;8.352;2024-03-22T00:27:48;101398.50;;;9.04;100.00
21129;BME280;10722;51.910;8.352;2024-03-22T00:30:32;101390.97;;;9.10;100.00
21129;BME280;10722;51.910;8.352;2024-03-22T00:33:16;101382.09;;;9.04;100.00
21129;BME280;10722;51.910;8.352;2024-03-22T00:36:00;101383.91;;;9.06;100.00
21129;BME280;10722;51.910;8.352;2024-03-22T00:38:46;101377.94;;;9.07;100.00
21129;BME280;10722;51.910;8.352;2024-03-22T00:41:31;101370.44;;;9.15;100.00
21129;BME280;10722;51.910;8.352;2024-03-22T00:44:15;101370.78;;;9.24;100.00
21129;BME280;10722;51.910;8.352;2024-03-22T00:46:59;101370.03;;;9.28;100.00
21129;BME280;10722;51.910;8.352;2024-03-22T00:49:44;101366.84;;;9.35;100.00
21129;BME280;10722;51.910;8.352;2024-03-22T00:52:28;101355.94;;;9.44;100.00
21129;BME280;10722;51.910;8.352;2024-03-22T00:55:13;101341.38;;;9.46;100.00
21129;BME280;10722;51.910;8.352;2024-03-22T00:57:57;101333.75;;;9.51;100.00
21129;BME280;10722;51.910;8.352;2024-03-22T01:00:41;101329.69;;;9.59;100.00
21129;BME280;10722;51.910;8.352;2024-03-22T01:03:26;101321.06;;;9.58;100.00
21129;BME280;10722;51.910;8.352;2024-03-22T01:06:09;101317.75;;;9.62;100.00
21129;BME280;10722;51.910;8.352;2024-03-22T01:08:54;101320.22;;;9.58;100.00
21129;BME280;10722;51.910;8.352;2024-03-22T01:11:38;101318.41;;;9.55;100.00
21129;BME280;10722;51.910;8.352;2024-03-22T01:14:22;101322.72;;;9.56;100.00
21129;BME280;10722;51.910;8.352;2024-03-22T01:17:06;101316.75;;;9.57;100.00
21129;BME280;10722;51.910;8.352;2024-03-22T01:19:51;101319.59;;;9.67;100.00
21129;BME280;10722;51.910;8.352;2024-03-22T01:22:35;101315.84;;;9.57;100.00
21129;BME280;10722;51.910;8.352;2024-03-22T01:25:19;101310.75;;;9.58;100.00
21129;BME280;10722;51.910;8.352;2024-03-22T01:28:04;101311.59;;;9.57;100.00
21129;BME280;10722;51.910;8.352;2024-03-22T01:30:48;101306.50;;;9.60;100.00
21129;BME280;10722;51.910;8.352;2024-03-22T01:33:32;101302.25;;;9.62;100.00
21129;BME280;10722;51.910;8.352;2024-03-22T01:36:17;101296.97;;;9.58;100.00
21129;BME280;10722;51.910;8.352;2024-03-22T01:39:01;101291.13;;;9.65;100.00
21129;BME280;10722;51.910;8.352;2024-03-22T01:41:45;101290.91;;;9.57;100.00
21129;BME280;10722;51.910;8.352;2024-03-22T01:44:31;101284.22;;;9.64;100.00
21129;BME280;10722;51.910;8.352;2024-03-22T01:47:16;101286.72;;;9.61;100.00
21129;BME280;10722;51.910;8.352;2024-03-22T01:50:01;101276.47;;;9.64;100.00
21129;BME280;10722;51.910;8.352;2024-03-22T01:52:46;101270.38;;;9.62;100.00
21129;BME280;10722;51.910;8.352;2024-03-22T01:55:30;101274.75;;;9.64;100.00
21129;BME280;10722;51.910;8.352;2024-03-22T01:58:16;101261.94;;;9.68;100.00
21129;BME280;10722;51.910;8.352;2024-03-22T02:01:00;101252.34;;;9.63;100.00
21129;BME280;10722;51.910;8.352;2024-03-22T02:03:44;101253.31;;;9.67;100.00
21129;BME280;10722;51.910;8.352;2024-03-22T02:06:29;101245.47;;;9.64;100.00
21129;BME280;10722;51.910;8.352;2024-03-22T02:09:14;101253.13;;;9.61;100.00
21129;BME280;10722;51.910;8.352;2024-03-22T02:11:59;101259.22;;;9.63;100.00
21129;BME280;10722;51.910;8.352;2024-03-22T02:14:43;101236.97;;;9.68;100.00
21129;BME280;10722;51.910;8.352;2024-03-22T02:17:27;101225.66;;;9.64;100.00
21129;BME280;10722;51.910;8.352;2024-03-22T02:20:11;101221.47;;;9.68;100.00
21129;BME280;10722;51.910;8.352;2024-03-22T02:22:55;101217.13;;;9.67;100.00
21129;BME280;10722;51.910;8.352;2024-03-22T02:25:40;101211.97;;;9.67;100.00
21129;BME280;10722;51.910;8.352;2024-03-22T02:28:24;101208.50;;;9.67;100.00
21129;BME280;10722;51.910;8.352;2024-03-22T02:31:09;101212.72;;;9.63;100.00
21129;BME280;10722;51.910;8.352;2024-03-22T02:33:53;101196.47;;;9.67;100.00
21129;BME280;10722;51.910;8.352;2024-03-22T02:36:37;101201.47;;;9.61;100.00
21129;BME280;10722;51.910;8.352;2024-03-22T02:39:21;101191.22;;;9.64;100.00
21129;BME280;10722;51.910;8.352;2024-03-22T02:42:06;101184.31;;;9.63;100.00
21129;BME280;10722;51.910;8.352;2024-03-22T02:44:50;101182.38;;;9.56;100.00
21129;BME280;10722;51.910;8.352;2024-03-22T02:47:34;101188.31;;;9.53;100.00
21129;BME280;10722;51.910;8.352;2024-03-22T02:50:18;101184.94;;;9.56;100.00
21129;BME280;10722;51.910;8.352;2024-03-22T02:53:03;101183.22;;;9.55;100.00
21129;BME280;10722;51.910;8.352;2024-03-22T02:55:47;101178.03;;;9.55;100.00
21129;BME280;10722;51.910;8.352;2024-03-22T02:58:31;101167.00;;;9.60;100.00
21129;BME280;10722;51.910;8.352;2024-03-22T03:01:16;101166.72;;;9.51;100.00
21129;BME280;10722;51.910;8.352;2024-03-22T03:04:00;101163.34;;;9.54;100.00
21129;BME280;10722;51.910;8.352;2024-03-22T03:06:44;101160.78;;;9.54;100.00
21129;BME280;10722;51.910;8.352;2024-03-22T03:09:28;101154.81;;;9.56;100.00
21129;BME280;10722;51.910;8.352;2024-03-22T03:12:12;101152.31;;;9.59;100.00
21129;BME280;10722;51.910;8.352;2024-03-22T03:14:56;101150.59;;;9.60;100.00
21129;BME280;10722;51.910;8.352;2024-03-22T03:17:40;101141.91;;;9.56;100.00
21129;BME280;10722;51.910;8.352;2024-03-22T03:20:25;101161.84;;;9.60;100.00
21129;BME280;10722;51.910;8.352;2024-03-22T03:23:09;101161.22;;;9.69;100.00
21129;BME280;10722;51.910;8.352;2024-03-22T03:25:53;101161.06;;;9.63;100.00
21129;BME280;10722;51.910;8.352;2024-03-22T03:28:37;101156.59;;;9.57;100.00
21129;BME280;10722;51.910;8.352;2024-03-22T03:31:21;101161.63;;;9.54;100.00
21129;BME280;10722;51.910;8.352;2024-03-22T03:34:05;101153.00;;;9.52;100.00
21129;BME280;10722;51.910;8.352;2024-03-22T03:36:49;101151.13;;;9.48;100.00
21129;BME280;10722;51.910;8.352;2024-03-22T03:39:33;101138.19;;;9.47;100.00
21129;BME280;10722;51.910;8.352;2024-03-22T03:42:17;101132.25;;;9.49;100.00
21129;BME280;10722;51.910;8.352;2024-03-22T03:45:01;101129.84;;;9.55;100.00
21129;BME280;10722;51.910;8.352;2024-03-22T03:47:45;101112.63;;;9.56;100.00
21129;BME280;10722;51.910;8.352;2024-03-22T03:50:29;101112.38;;;9.47;100.00
21129;BME280;10722;51.910;8.352;2024-03-22T03:53:13;101118.56;;;9.53;100.00
21129;BME280;10722;51.910;8.352;2024-03-22T03:55:57;101104.88;;;9.56;100.00
21129;BME280;10722;51.910;8.352;2024-03-22T03:58:42;101098.88;;;9.57;100.00
21129;BME280;10722;51.910;8.352;2024-03-22T04:01:26;101094.63;;;9.59;100.00
21129;BME280;10722;51.910;8.352;2024-03-22T04:04:09;101088.59;;;9.60;100.00
21129;BME280;10722;51.910;8.352;2024-03-22T04:06:53;101080.00;;;9.59;100.00
21129;BME280;10722;51.910;8.352;2024-03-22T04:09:37;101076.50;;;9.57;100.00
21129;BME280;10722;51.910;8.352;2024-03-22T04:12:22;101075.69;;;9.60;100.00
21129;BME280;10722;51.910;8.352;2024-03-22T04:15:06;101068.94;;;9.65;100.00
21129;BME280;10722;51.910;8.352;2024-03-22T04:17:52;101065.19;;;9.52;100.00
21129;BME280;10722;51.910;8.352;2024-03-22T04:20:37;101061.81;;;9.55;100.00
21129;BME280;10722;51.910;8.352;2024-03-22T04:23:22;101067.78;;;9.54;100.00
21129;BME280;10722;51.910;8.352;2024-03-22T04:26:09;101061.97;;;9.61;100.00
21129;BME280;10722;51.910;8.352;2024-03-22T04:28:53;101060.38;;;9.66;100.00
21129;BME280;10722;51.910;8.352;2024-03-22T04:31:37;101054.25;;;9.62;100.00
21129;BME280;10722;51.910;8.352;2024-03-22T04:34:22;101048.34;;;9.68;100.00
21129;BME280;10722;51.910;8.352;2024-03-22T04:37:06;101039.88;;;9.72;100.00
21129;BME280;10722;51.910;8.352;2024-03-22T04:39:51;101035.53;;;9.71;100.00
21129;BME280;10722;51.910;8.352;2024-03-22T04:42:35;101033.91;;;9.75;100.00
21129;BME280;10722;51.910;8.352;2024-03-22T04:45:19;101039.19;;;9.79;100.00
21129;BME280;10722;51.910;8.352;2024-03-22T04:48:04;101034.81;;;9.77;100.00
21129;BME280;10722;51.910;8.352;2024-03-22T04:50:52;101030.47;;;9.74;100.00
21129;BME280;10722;51.910;8.352;2024-03-22T04:53:37;101029.75;;;9.80;100.00
21129;BME280;10722;51.910;8.352;2024-03-22T04:56:21;101021.28;;;9.85;100.00
21129;BME280;10722;51.910;8.352;2024-03-22T04:59:04;101018.56;;;9.82;100.00
21129;BME280;10722;51.910;8.352;2024-03-22T05:01:48;101026.31;;;9.81;100.00
21129;BME280;10722;51.910;8.352;2024-03-22T05:04:32;101018.78;;;9.90;100.00
21129;BME280;10722;51.910;8.352;2024-03-22T05:07:16;101012.75;;;9.90;100.00
21129;BME280;10722;51.910;8.352;2024-03-22T05:10:01;101012.75;;;9.90;100.00
21129;BME280;10722;51.910;8.352;2024-03-22T05:12:45;101018.78;;;9.90;100.00
21129;BME280;10722;51.910;8.352;2024-03-22T05:15:30;101014.47;;;9.91;100.00
21129;BME280;10722;51.910;8.352;2024-03-22T05:18:14;101013.84;;;9.99;100.00
21129;BME280;10722;51.910;8.352;2024-03-22T05:20:59;100988.91;;;10.01;100.00
21129;BME280;10722;51.910;8.352;2024-03-22T05:23:43;100994.94;;;10.02;100.00
21129;BME280;10722;51.910;8.352;2024-03-22T05:26:27;100992.47;;;10.06;100.00
21129;BME280;10722;51.910;8.352;2024-03-22T05:29:11;100987.44;;;10.11;100.00
21129;BME280;10722;51.910;8.352;2024-03-22T05:31:55;100991.78;;;10.14;100.00
21129;BME280;10722;51.910;8.352;2024-03-22T05:34:39;100985.78;;;10.16;100.00
21129;BME280;10722;51.910;8.352;2024-03-22T05:37:23;100985.97;;;10.24;100.00
21129;BME280;10722;51.910;8.352;2024-03-22T05:40:08;100982.69;;;10.28;100.00
21129;BME280;10722;51.910;8.352;2024-03-22T05:42:52;100976.09;;;10.42;100.00
21129;BME280;10722;51.910;8.352;2024-03-22T05:45:36;100972.47;;;10.36;100.00
21129;BME280;10722;51.910;8.352;2024-03-22T05:48:21;100972.47;;;10.36;100.00
21129;BME280;10722;51.910;8.352;2024-03-22T05:51:05;100972.53;;;10.37;100.00
21129;BME280;10722;51.910;8.352;2024-03-22T05:53:49;100972.66;;;10.43;100.00
21129;BME280;10722;51.910;8.352;2024-03-22T05:56:33;100975.38;;;10.48;100.00
21129;BME280;10722;51.910;8.352;2024-03-22T05:59:17;100977.16;;;10.52;100.00
21129;BME280;10722;51.910;8.352;2024-03-22T06:02:02;100973.81;;;10.56;100.00
21129;BME280;10722;51.910;8.352;2024-03-22T06:04:46;100971.31;;;10.61;100.00
21129;BME280;10722;51.910;8.352;2024-03-22T06:07:30;100974.00;;;10.65;100.00
21129;BME280;10722;51.910;8.352;2024-03-22T06:10:15;100978.38;;;10.68;100.00
21129;BME280;10722;51.910;8.352;2024-03-22T06:12:59;100979.38;;;10.74;100.00
21129;BME280;10722;51.910;8.352;2024-03-22T06:15:43;100971.72;;;10.79;100.00
21129;BME280;10722;51.910;8.352;2024-03-22T06:18:27;100963.25;;;10.88;100.00
21129;BME280;10722;51.910;8.352;2024-03-22T06:21:11;100954.78;;;10.96;100.00
21129;BME280;10722;51.910;8.352;2024-03-22T06:23:55;100953.22;;;11.05;100.00
21129;BME280;10722;51.910;8.352;2024-03-22T06:26:40;100937.91;;;11.15;100.00
21129;BME280;10722;51.910;8.352;2024-03-22T06:29:24;100926.66;;;11.15;100.00
21129;BME280;10722;51.910;8.352;2024-03-22T06:32:08;100917.28;;;11.21;100.00
21129;BME280;10722;51.910;8.352;2024-03-22T06:34:53;100915.53;;;11.20;100.00
21129;BME280;10722;51.910;8.352;2024-03-22T06:37:40;100919.03;;;11.22;100.00
21129;BME280;10722;51.910;8.352;2024-03-22T06:40:24;100906.16;;;11.27;100.00
21129;BME280;10722;51.910;8.352;2024-03-22T06:43:08;100912.28;;;11.31;100.00
21129;BME280;10722;51.910;8.352;2024-03-22T06:45:53;100918.41;;;11.37;100.00
21129;BME280;10722;51.910;8.352;2024-03-22T06:48:37;100912.47;;;11.41;99.63
21129;BME280;10722;51.910;8.352;2024-03-22T06:51:21;100903.06;;;11.48;99.33
21129;BME280;10722;51.910;8.352;2024-03-22T06:54:05;100890.97;;;11.47;98.92
21129;BME280;10722;51.910;8.352;2024-03-22T06:56:49;100886.69;;;11.51;98.47
21129;BME280;10722;51.910;8.352;2024-03-22T06:59:34;100885.88;;;11.52;98.55
21129;BME280;10722;51.910;8.352;2024-03-22T07:02:18;100883.25;;;11.50;98.19
21129;BME280;10722;51.910;8.352;2024-03-22T07:05:03;100879.84;;;11.54;97.61
21129;BME280;10722;51.910;8.352;2024-03-22T07:07:47;100879.91;;;11.57;97.53
21129;BME280;10722;51.910;8.352;2024-03-22T07:10:32;100890.31;;;11.60;97.11
21129;BME280;10722;51.910;8.352;2024-03-22T07:13:15;100876.56;;;11.64;96.95
21129;BME280;10722;51.910;8.352;2024-03-22T07:16:00;100886.91;;;11.64;96.31
21129;BME280;10722;51.910;8.352;2024-03-22T07:18:45;100884.38;;;11.66;96.09
21129;BME280;10722;51.910;8.352;2024-03-22T07:21:29;100879.19;;;11.67;95.71
21129;BME280;10722;51.910;8.352;2024-03-22T07:24:14;100874.00;;;11.67;95.71
21129;BME280;10722;51.910;8.352;2024-03-22T07:26:58;100876.69;;;11.72;95.59
21129;BME280;10722;51.910;8.352;2024-03-22T07:29:44;100873.22;;;11.73;95.47
21129;BME280;10722;51.910;8.352;2024-03-22T07:32:29;100862.81;;;11.70;95.30
21129;BME280;10722;51.910;8.352;2024-03-22T07:35:14;100866.34;;;11.75;95.04
21129;BME280;10722;51.910;8.352;2024-03-22T07:37:58;100852.50;;;11.73;94.76
21129;BME280;10722;51.910;8.352;2024-03-22T07:40:42;100849.97;;;11.78;94.37
21129;BME280;10722;51.910;8.352;2024-03-22T07:43:27;100839.63;;;11.79;93.94
21129;BME280;10722;51.910;8.352;2024-03-22T07:46:11;100844.84;;;11.81;93.81
21129;BME280;10722;51.910;8.352;2024-03-22T07:48:56;100830.16;;;11.81;93.40
21129;BME280;10722;51.910;8.352;2024-03-22T07:51:39;100826.69;;;11.81;93.46
21129;BME280;10722;51.910;8.352;2024-03-22T07:54:24;100831.13;;;11.86;93.15
21129;BME280;10722;51.910;8.352;2024-03-22T07:57:08;100822.59;;;11.95;93.18
21129;BME280;10722;51.910;8.352;2024-03-22T07:59:53;100826.09;;;11.97;92.44
21129;BME280;10722;51.910;8.352;2024-03-22T08:02:37;100823.53;;;12.00;92.52
21129;BME280;10722;51.910;8.352;2024-03-22T08:05:21;100816.69;;;12.05;91.94
21129;BME280;10722;51.910;8.352;2024-03-22T08:08:06;100815.84;;;12.06;91.15
21129;BME280;10722;51.910;8.352;2024-03-22T08:10:50;100814.25;;;12.18;91.29
21129;BME280;10722;51.910;8.352;2024-03-22T08:13:35;100810.88;;;12.26;91.41
21129;BME280;10722;51.910;8.352;2024-03-22T08:16:19;100818.69;;;12.28;91.30
21129;BME280;10722;51.910;8.352;2024-03-22T08:19:03;100816.03;;;12.23;90.58
21129;BME280;10722;51.910;8.352;2024-03-22T08:21:47;100788.47;;;12.33;90.10
21129;BME280;10722;51.910;8.352;2024-03-22T08:24:31;100796.44;;;12.48;89.91
21129;BME280;10722;51.910;8.352;2024-03-22T08:27:15;100790.22;;;12.36;89.23
21129;BME280;10722;51.910;8.352;2024-03-22T08:30:00;100784.22;;;12.38;88.87
21129;BME280;10722;51.910;8.352;2024-03-22T08:32:44;100776.59;;;12.50;88.41
21129;BME280;10722;51.910;8.352;2024-03-22T08:35:28;100774.00;;;12.55;88.58
21129;BME280;10722;51.910;8.352;2024-03-22T08:38:12;100760.91;;;12.44;87.42
21129;BME280;10722;51.910;8.352;2024-03-22T08:40:57;100744.63;;;12.56;86.82
21129;BME280;10722;51.910;8.352;2024-03-22T08:43:41;100718.72;;;12.62;85.60
21129;BME280;10722;51.910;8.352;2024-03-22T08:46:25;100714.50;;;12.75;85.31
21129;BME280;10722;51.910;8.352;2024-03-22T08:49:09;100697.22;;;12.77;84.37
21129;BME280;10722;51.910;8.352;2024-03-22T08:51:54;100687.69;;;12.73;83.58
21129;BME280;10722;51.910;8.352;2024-03-22T08:54:38;100664.34;;;12.79;82.74
21129;BME280;10722;51.910;8.352;2024-03-22T08:57:22;100669.56;;;12.79;82.42
21129;BME280;10722;51.910;8.352;2024-03-22T09:00:07;100654.78;;;12.70;81.29
21129;BME280;10722;51.910;8.352;2024-03-22T09:02:52;100627.97;;;12.70;80.52
21129;BME280;10722;51.910;8.352;2024-03-22T09:05:36;100622.75;;;12.70;80.21
21129;BME280;10722;51.910;8.352;2024-03-22T09:08:20;100634.06;;;12.79;80.10
21129;BME280;10722;51.910;8.352;2024-03-22T09:11:04;100618.56;;;12.92;79.26
21129;BME280;10722;51.910;8.352;2024-03-22T09:13:51;100614.28;;;13.00;78.88
21129;BME280;10722;51.910;8.352;2024-03-22T09:16:35;100598.69;;;12.95;78.49
21129;BME280;10722;51.910;8.352;2024-03-22T09:19:19;100602.16;;;12.99;78.69
21129;BME280;10722;51.910;8.352;2024-03-22T09:22:04;100608.31;;;13.13;78.48
21129;BME280;10722;51.910;8.352;2024-03-22T09:24:48;100590.06;;;13.02;77.61
21129;BME280;10722;51.910;8.352;2024-03-22T09:27:32;100584.84;;;12.96;77.56
21129;BME280;10722;51.910;8.352;2024-03-22T09:30:16;100605.69;;;13.15;77.86
21129;BME280;10722;51.910;8.352;2024-03-22T09:33:00;100579.69;;;13.02;77.06
21129;BME280;10722;51.910;8.352;2024-03-22T09:35:45;100580.44;;;12.86;76.95
21129;BME280;10722;51.910;8.352;2024-03-22T09:38:29;100583.94;;;12.91;77.19
21129;BME280;10722;51.910;8.352;2024-03-22T09:41:14;100571.84;;;12.95;76.96
21129;BME280;10722;51.910;8.352;2024-03-22T09:43:59;100556.25;;;12.87;76.14
21129;BME280;10722;51.910;8.352;2024-03-22T09:46:43;100551.13;;;13.01;76.04
21129;BME280;10722;51.910;8.352;2024-03-22T09:49:28;100550.22;;;12.97;75.81
21129;BME280;10722;51.910;8.352;2024-03-22T09:52:13;100570.19;;;13.11;76.13
21129;BME280;10722;51.910;8.352;2024-03-22T09:54:57;100566.72;;;13.09;75.84
21129;BME280;10722;51.910;8.352;2024-03-22T09:57:42;100557.22;;;13.14;75.38
21129;BME280;10722;51.910;8.352;2024-03-22T10:00:27;100541.63;;;13.14;74.93
21129;BME280;10722;51.910;8.352;2024-03-22T10:03:11;100544.22;;;13.14;74.81
21129;BME280;10722;51.910;8.352;2024-03-22T10:05:55;100552.16;;;13.32;74.86
21129;BME280;10722;51.910;8.352;2024-03-22T10:08:40;100559.09;;;13.42;74.46
21129;BME280;10722;51.910;8.352;2024-03-22T10:11:26;100552.13;;;13.29;75.18
21129;BME280;10722;51.910;8.352;2024-03-22T10:14:10;100570.38;;;13.44;75.51
21129;BME280;10722;51.910;8.352;2024-03-22T10:16:55;100563.47;;;13.62;75.00
21129;BME280;10722;51.910;8.352;2024-03-22T10:19:40;100553.06;;;13.50;75.07
21129;BME280;10722;51.910;8.352;2024-03-22T10:22:25;100559.09;;;13.38;75.33
21129;BME280;10722;51.910;8.352;2024-03-22T10:25:10;100547.69;;;13.11;75.43
21129;BME280;10722;51.910;8.352;2024-03-22T10:27:54;100572.94;;;13.35;75.94
21129;BME280;10722;51.910;8.352;2024-03-22T10:30:40;100574.66;;;13.30;76.09
21129;BME280;10722;51.910;8.352;2024-03-22T10:33:26;100606.72;;;13.37;77.13
21129;BME280;10722;51.910;8.352;2024-03-22T10:36:12;100614.38;;;13.20;77.78
21129;BME280;10722;51.910;8.352;2024-03-22T10:38:58;100631.66;;;13.15;77.84
21129;BME280;10722;51.910;8.352;2024-03-22T10:41:44;100638.72;;;13.28;78.14
21129;BME280;10722;51.910;8.352;2024-03-22T10:44:28;100620.50;;;13.23;77.80
21129;BME280;10722;51.910;8.352;2024-03-22T10:47:14;100615.34;;;13.31;77.50
21129;BME280;10722;51.910;8.352;2024-03-22T10:52:57;100602.41;;;13.42;77.23
21129;BME280;10722;51.910;8.352;2024-03-22T10:55:45;100598.91;;;13.37;77.31
21129;BME280;10722;51.910;8.352;2024-03-22T10:58:30;100605.03;;;13.47;77.38
21129;BME280;10722;51.910;8.352;2024-03-22T11:01:26;100602.38;;;13.33;77.58
21129;BME280;10722;51.910;8.352;2024-03-22T11:04:10;100594.63;;;13.51;77.56
21129;BME280;10722;51.910;8.352;2024-03-22T11:06:56;100577.34;;;13.59;76.56
21129;BME280;10722;51.910;8.352;2024-03-22T11:09:51;100569.53;;;13.62;76.78
21129;BME280;10722;51.910;8.352;2024-03-22T11:12:37;100572.13;;;13.62;76.74
21129;BME280;10722;51.910;8.352;2024-03-22T11:15:22;100575.59;;;13.57;76.70
21129;BME280;10722;51.910;8.352;2024-03-22T11:18:06;100573.88;;;13.60;76.51
21129;BME280;10722;51.910;8.352;2024-03-22T11:20:51;100566.91;;;13.49;76.71
21129;BME280;10722;51.910;8.352;2024-03-22T11:23:36;100586.81;;;13.40;77.47
21129;BME280;10722;51.910;8.352;2024-03-22T11:26:20;100592.91;;;13.47;77.98
21129;BME280;10722;51.910;8.352;2024-03-22T11:29:04;100583.31;;;13.31;77.81
21129;BME280;10722;51.910;8.352;2024-03-22T11:31:49;100606.72;;;13.43;78.13
21129;BME280;10722;51.910;8.352;2024-03-22T11:34:37;100603.28;;;13.49;78.14
21129;BME280;10722;51.910;8.352;2024-03-22T11:37:21;100602.41;;;13.48;77.94
21129;BME280;10722;51.910;8.352;2024-03-22T11:40:08;100607.69;;;13.68;78.36
21129;BME280;10722;51.910;8.352;2024-03-22T11:42:55;100579.88;;;13.38;77.84
21129;BME280;10722;51.910;8.352;2024-03-22T11:45:41;100613.72;;;13.53;78.41
21129;BME280;10722;51.910;8.352;2024-03-22T11:48:26;100617.97;;;13.37;78.59
21129;BME280;10722;51.910;8.352;2024-03-22T11:51:10;100608.50;;;13.50;78.94
21129;BME280;10722;51.910;8.352;2024-03-22T11:53:54;100604.16;;;13.51;78.69
21129;BME280;10722;51.910;8.352;2024-03-22T11:56:39;100617.19;;;13.52;79.22
21129;BME280;10722;51.910;8.352;2024-03-22T11:59:23;100626.66;;;13.45;79.16
21129;BME280;10722;51.910;8.352;2024-03-22T12:02:09;100622.28;;;13.31;79.52
21129;BME280;10722;51.910;8.352;2024-03-22T12:04:54;100631.66;;;13.12;80.27
21129;BME280;10722;51.910;8.352;2024-03-22T12:07:39;100646.38;;;13.07;80.79
21129;BME280;10722;51.910;8.352;2024-03-22T12:10:23;100652.50;;;13.18;81.13
21129;BME280;10722;51.910;8.352;2024-03-22T12:13:07;100652.47;;;13.15;81.33
21129;BME280;10722;51.910;8.352;2024-03-22T12:15:51;100634.13;;;12.84;81.38
21129;BME280;10722;51.910;8.352;2024-03-22T12:18:35;100660.06;;;12.84;82.39
21129;BME280;10722;51.910;8.352;2024-03-22T12:21:20;100671.25;;;12.77;82.54
21129;BME280;10722;51.910;8.352;2024-03-22T12:24:04;100666.06;;;12.77;82.92
21129;BME280;10722;51.910;8.352;2024-03-22T12:26:49;100670.22;;;12.58;83.32
21129;BME280;10722;51.910;8.352;2024-03-22T12:29:34;100673.88;;;12.80;83.70
21129;BME280;10722;51.910;8.352;2024-03-22T12:32:18;100665.31;;;12.90;83.40
21129;BME280;10722;51.910;8.352;2024-03-22T12:35:03;100651.41;;;12.82;83.39
21129;BME280;10722;51.910;8.352;2024-03-22T12:37:47;100646.28;;;12.97;83.62
21129;BME280;10722;51.910;8.352;2024-03-22T12:40:31;100655.63;;;12.69;83.69
21129;BME280;10722;51.910;8.352;2024-03-22T12:43:15;100655.59;;;12.65;83.90
21129;BME280;10722;51.910;8.352;2024-03-22T12:46:00;100652.91;;;12.55;83.89
21129;BME280;10722;51.910;8.352;2024-03-22T12:48:44;100656.47;;;12.67;84.62
21129;BME280;10722;51.910;8.352;2024-03-22T12:51:28;100666.97;;;12.82;84.92
21129;BME280;10722;51.910;8.352;2024-03-22T12:54:13;100654.72;;;12.64;84.87
21129;BME280;10722;51.910;8.352;2024-03-22T12:56:58;100649.63;;;12.76;84.95
21129;BME280;10722;51.910;8.352;2024-03-22T12:59:42;100651.38;;;12.81;85.12
21129;BME280;10722;51.910;8.352;2024-03-22T13:02:26;100649.69;;;12.89;85.25
21129;BME280;10722;51.910;8.352;2024-03-22T13:05:11;100633.25;;;12.88;84.83
21129;BME280;10722;51.910;8.352;2024-03-22T13:07:55;100621.03;;;12.75;84.81
21129;BME280;10722;51.910;8.352;2024-03-22T13:10:39;100621.03;;;12.70;84.70
21129;BME280;10722;51.910;8.352;2024-03-22T13:13:23;100626.16;;;12.63;85.00
21129;BME280;10722;51.910;8.352;2024-03-22T13:16:08;100623.25;;;12.26;85.19
21129;BME280;10722;51.910;8.352;2024-03-22T13:18:52;100639.72;;;12.28;86.13
21129;BME280;10722;51.910;8.352;2024-03-22T13:21:36;100643.22;;;12.34;87.07
21129;BME280;10722;51.910;8.352;2024-03-22T13:24:20;100655.47;;;12.52;87.08
21129;BME280;10722;51.910;8.352;2024-03-22T13:27:04;100648.44;;;12.38;87.06
21129;BME280;10722;51.910;8.352;2024-03-22T13:29:48;100638.13;;;12.42;87.52
21129;BME280;10722;51.910;8.352;2024-03-22T13:32:32;100647.75;;;12.57;87.66
21129;BME280;10722;51.910;8.352;2024-03-22T13:35:16;100645.97;;;12.51;87.94
21129;BME280;10722;51.910;8.352;2024-03-22T13:38:01;100651.09;;;12.44;88.65
21129;BME280;10722;51.910;8.352;2024-03-22T13:40:52;100655.03;;;12.03;89.54
21129;BME280;10722;51.910;8.352;2024-03-22T13:43:37;100664.66;;;12.14;90.74
21129;BME280;10722;51.910;8.352;2024-03-22T13:46:21;100657.75;;;12.19;90.97
21129;BME280;10722;51.910;8.352;2024-03-22T13:49:13;100662.81;;;12.05;91.69
21129;BME280;10722;51.910;8.352;2024-03-22T13:51:58;100669.72;;;12.04;92.53
21129;BME280;10722;51.910;8.352;2024-03-22T13:54:43;100667.97;;;12.00;93.34
21129;BME280;10722;51.910;8.352;2024-03-22T13:57:27;100669.34;;;11.72;94.44
21129;BME280;10722;51.910;8.352;2024-03-22T14:00:12;100680.56;;;11.73;96.06
21129;BME280;10722;51.910;8.352;2024-03-22T14:02:56;100673.50;;;11.59;96.53
21129;BME280;10722;51.910;8.352;2024-03-22T14:05:40;100676.00;;;11.52;97.89
21129;BME280;10722;51.910;8.352;2024-03-22T14:08:24;100683.91;;;11.65;98.98
21129;BME280;10722;51.910;8.352;2024-03-22T14:11:08;100673.63;;;11.69;99.63
21129;BME280;10722;51.910;8.352;2024-03-22T14:13:53;100664.75;;;11.51;100.00
21129;BME280;10722;51.910;8.352;2024-03-22T14:16:38;100667.50;;;11.63;100.00
21129;BME280;10722;51.910;8.352;2024-03-22T14:19:23;100663.94;;;11.55;100.00